Terminal Aerodrome Forecast
Issued by NWS Blacksburg, VA

Current Version | Previous Version | Graphics & Text | Print | Product List | Glossary On
Versions: 1 2 3 4 5 6 7 8 9 10 11 12 13 14 15 16 17 18 19 20 21 22 23 24 25 26 27 28 29 30 31 32 33 34 35 36 37 38 39 40 41 42 43 44 45 46 47
562
FTUS41 KRNK 282215 AAE
TAFBLF
TAF AMD
KBLF 282215Z 2822/2918 30008KT P6SM VCSH SCT015 OVC040
     FM290600 32005KT P6SM BKN008
     FM291600 35004KT P6SM BKN035=

USA.gov is the U.S. government's official web portal to all federal, state and local government web resources and services.